Time;durP1;ratioP1;P1;durP2;ratioP2;P2;SDS_P1;SDS_P2;PMS_P1;PMS_P2;Temp;Humidity;BMP_temperature;BMP_pressure;BME280_temperature;BME280_humidity;BME280_pressure;Samples;Min_cycle;Max_cycle;Signal;HPM_P1;HPM_P2
2023/08/29 00:00:09;;;;;;;;;;;;;;;;;;5011751;28;20007;-70
2023/08/29 00:02:40;;;;;;;;;;;;;;;;;;5011533;28;19957;-70
2023/08/29 00:05:06;;;;;;;;;;;;;;;;;;5011612;28;19920;-72
2023/08/29 00:07:32;;;;;;;;;;;;;;;;;;5010967;28;20266;-69
2023/08/29 00:09:58;;;;;;;;;;;;;;;;;;5011486;28;19913;-70
2023/08/29 00:12:24;;;;;;;;;;;;;;;;;;5010730;28;19909;-70
2023/08/29 00:14:50;;;;;;;;;;;;;;;;;;5011511;28;19941;-71
2023/08/29 00:17:16;;;;;;;;;;;;;;;;;;5011003;28;19964;-71
2023/08/29 00:19:42;;;;;;;;;;;;;;;;;;5011375;28;19909;-71
2023/08/29 00:22:08;;;;;;;;;;;;;;;;;;4993600;28;19910;-71
2023/08/29 00:24:33;;;;;;;;;;;;;;;;;;5011270;28;19905;-72
2023/08/29 00:26:59;;;;;;;;;;;;;;;;;;5011067;28;20343;-70
2023/08/29 00:29:26;;;;;;;;;;;;;;;;;;5010871;28;19971;-70
2023/08/29 00:31:52;;;;;;;;;;;;;;;;;;4993539;28;19905;-70
2023/08/29 00:34:18;;;;;;;;;;;;;;;;;;5011478;28;20009;-70
2023/08/29 00:36:43;;;;;;;;;;;;;;;;;;5011020;28;19917;-70
2023/08/29 00:39:09;;;;;;;;;;;;;;;;;;5010947;28;19931;-70
2023/08/29 00:41:35;;;;;;;;;;;;;;;;;;5011325;28;19909;-70
2023/08/29 00:44:01;;;;;;;;;;;;;;;;;;5011657;28;19905;-70
2023/08/29 00:46:27;;;;;;;;;;;;;;;;;;5011958;28;19906;-70
2023/08/29 00:48:53;;;;;;;;;;;;;;;;;;5011388;28;20015;-70
2023/08/29 00:51:19;;;;;;;;;;;;;;;;;;5020331;28;19999;-70
2023/08/29 00:53:45;;;;;;;;;;;;;;;;;;5020385;28;19912;-71
2023/08/29 00:56:12;;;;;;;;;;;;;;;;;;5016900;28;19917;-70
2023/08/29 00:58:37;;;;;;;;;;;;;;;;;;5014232;28;19909;-69
2023/08/29 01:01:03;;;;;;;;;;;;;;;;;;5011263;28;19928;-70
2023/08/29 01:03:29;;;;;;;;;;;;;;;;;;5011371;28;19909;-70
2023/08/29 01:05:55;;;;;;;;;;;;;;;;;;5010894;28;19980;-71
2023/08/29 01:08:22;;;;;;;;;;;;;;;;;;5010724;28;19913;-70
2023/08/29 01:10:48;;;;;;;;;;;;;;;;;;5010715;28;20297;-70
2023/08/29 01:13:13;;;;;;;;;;;;;;;;;;5010876;28;19992;-70
2023/08/29 01:15:39;;;;;;;;;;;;;;;;;;5011004;28;19909;-70
2023/08/29 01:18:05;;;;;;;;;;;;;;;;;;5010170;28;19955;-70
2023/08/29 01:20:31;;;;;;;;;;;;;;;;;;5010934;28;20319;-70
2023/08/29 01:22:58;;;;;;;;;;;;;;;;;;5012277;28;20404;-70
2023/08/29 01:25:24;;;;;;;;;;;;;;;;;;5014449;28;19906;-70
2023/08/29 01:27:50;;;;;;;;;;;;;;;;;;5022578;28;19909;-69
2023/08/29 01:30:16;;;;;;;;;;;;;;;;;;5024119;28;19906;-71
2023/08/29 01:32:41;;;;;;;;;;;;;;;;;;5023378;28;19916;-70
2023/08/29 01:35:07;;;;;;;;;;;;;;;;;;5021349;28;19912;-70
2023/08/29 01:37:33;;;;;;;;;;;;;;;;;;5013881;28;19909;-69
2023/08/29 01:39:59;;;;;;;;;;;;;;;;;;5014118;28;19915;-70
2023/08/29 01:42:25;;;;;;;;;;;;;;;;;;5014226;28;19913;-69
2023/08/29 01:44:51;;;;;;;;;;;;;;;;;;5014051;28;19999;-69
2023/08/29 01:47:17;;;;;;;;;;;;;;;;;;5013712;28;19995;-69
2023/08/29 01:49:43;;;;;;;;;;;;;;;;;;5013980;28;19905;-69
2023/08/29 01:52:09;;;;;;;;;;;;;;;;;;5014237;28;19909;-69
2023/08/29 01:54:35;;;;;;;;;;;;;;;;;;5014037;28;19910;-70
2023/08/29 01:57:01;;;;;;;;;;;;;;;;;;5013944;28;19914;-70
2023/08/29 01:59:27;;;;;;;;;;;;;;;;;;5013501;28;19912;-71
2023/08/29 02:01:53;;;;;;;;;;;;;;;;;;5013925;28;19912;-68
2023/08/29 02:04:18;;;;;;;;;;;;;;;;;;5013936;28;19924;-69
2023/08/29 02:06:44;;;;;;;;;;;;;;;;;;5013516;28;19913;-69
2023/08/29 02:09:11;;;;;;;;;;;;;;;;;;5013146;28;19910;-69
2023/08/29 02:11:36;;;;;;;;;;;;;;;;;;5013555;28;19910;-69
2023/08/29 02:14:02;;;;;;;;;;;;;;;;;;4996079;28;19906;-70
2023/08/29 02:16:31;;;;;;;;;;;;;;;;;;5013395;28;19905;-70
2023/08/29 02:18:57;;;;;;;;;;;;;;;;;;5013216;28;19905;-70
2023/08/29 02:21:23;;;;;;;;;;;;;;;;;;5013260;28;20019;-70
2023/08/29 02:23:49;;;;;;;;;;;;;;;;;;5013333;28;19916;-70
2023/08/29 02:26:15;;;;;;;;;;;;;;;;;;5013350;28;19952;-71
2023/08/29 02:28:41;;;;;;;;;;;;;;;;;;4994935;28;20300;-71
2023/08/29 02:31:06;;;;;;;;;;;;;;;;;;5013296;28;19906;-71
2023/08/29 02:33:32;;;;;;;;;;;;;;;;;;5013264;28;20292;-71
2023/08/29 02:35:58;;;;;;;;;;;;;;;;;;5012563;28;19905;-70
2023/08/29 02:38:24;;;;;;;;;;;;;;;;;;5011929;28;20388;-70
2023/08/29 02:40:50;;;;;;;;;;;;;;;;;;5012910;28;19910;-70
2023/08/29 02:43:16;;;;;;;;;;;;;;;;;;5012876;28;19905;-70
2023/08/29 02:45:42;;;;;;;;;;;;;;;;;;5012985;28;19967;-70
2023/08/29 02:48:09;;;;;;;;;;;;;;;;;;5012294;28;19996;-70
2023/08/29 02:50:35;;;;;;;;;;;;;;;;;;5012612;28;19906;-68
2023/08/29 02:53:01;;;;;;;;;;;;;;;;;;5013115;28;19909;-71
2023/08/29 02:55:27;;;;;;;;;;;;;;;;;;5013311;28;20024;-70
2023/08/29 02:57:53;;;;;;;;;;;;;;;;;;5012613;28;19909;-70
2023/08/29 03:00:19;;;;;;;;;;;;;;;;;;5013012;28;19905;-70
2023/08/29 03:02:45;;;;;;;;;;;;;;;;;;5013207;28;19947;-70
2023/08/29 03:05:11;;;;;;;;;;;;;;;;;;5012742;28;19920;-70
2023/08/29 03:07:37;;;;;;;;;;;;;;;;;;5011730;28;19943;-70
2023/08/29 03:10:03;;;;;;;;;;;;;;;;;;5013058;28;19906;-70
2023/08/29 03:12:29;;;;;;;;;;;;;;;;;;5012584;28;20405;-70
2023/08/29 03:14:55;;;;;;;;;;;;;;;;;;5012315;28;19912;-70
2023/08/29 03:17:21;;;;;;;;;;;;;;;;;;5011581;28;19910;-70
2023/08/29 03:19:47;;;;;;;;;;;;;;;;;;5012158;28;19905;-71
2023/08/29 03:22:13;;;;;;;;;;;;;;;;;;5012367;28;19906;-71
2023/08/29 03:24:39;;;;;;;;;;;;;;;;;;5011209;28;19913;-71
2023/08/29 03:27:05;;;;;;;;;;;;;;;;;;5011870;28;19909;-71
2023/08/29 03:29:31;;;;;;;;;;;;;;;;;;5011984;28;19905;-70
2023/08/29 03:31:56;;;;;;;;;;;;;;;;;;5012086;28;19905;-70
2023/08/29 03:34:22;;;;;;;;;;;;;;;;;;5012001;28;19915;-69
2023/08/29 03:36:48;;;;;;;;;;;;;;;;;;5010283;28;19944;-71
2023/08/29 03:39:14;;;;;;;;;;;;;;;;;;5011462;28;19948;-71
2023/08/29 03:41:40;;;;;;;;;;;;;;;;;;5011856;28;19920;-70
2023/08/29 03:44:06;;;;;;;;;;;;;;;;;;5012141;28;20293;-70
2023/08/29 03:46:32;;;;;;;;;;;;;;;;;;5011098;28;19997;-70
2023/08/29 03:48:58;;;;;;;;;;;;;;;;;;5008629;28;19916;-71
2023/08/29 03:51:24;;;;;;;;;;;;;;;;;;5011789;28;19916;-71
2023/08/29 03:53:50;;;;;;;;;;;;;;;;;;5011889;28;19909;-71
2023/08/29 03:56:16;;;;;;;;;;;;;;;;;;5011658;28;19912;-71
2023/08/29 03:58:42;;;;;;;;;;;;;;;;;;5010580;28;19914;-70
2023/08/29 04:01:08;;;;;;;;;;;;;;;;;;5011686;28;19907;-70
2023/08/29 04:03:34;;;;;;;;;;;;;;;;;;5014020;28;19949;-71
2023/08/29 04:06:00;;;;;;;;;;;;;;;;;;5014598;28;20051;-71
2023/08/29 04:08:26;;;;;;;;;;;;;;;;;;4995976;28;20424;-71
2023/08/29 04:10:52;;;;;;;;;;;;;;;;;;5014086;28;19912;-71
2023/08/29 04:13:18;;;;;;;;;;;;;;;;;;5011729;28;19967;-68
2023/08/29 04:15:44;;;;;;;;;;;;;;;;;;5011227;28;20373;-69
2023/08/29 04:18:10;;;;;;;;;;;;;;;;;;5010466;28;19920;-69
2023/08/29 04:20:36;;;;;;;;;;;;;;;;;;5011326;28;19906;-69
2023/08/29 04:23:06;;;;;;;;;;;;;;;;;;5011693;28;19905;-69
2023/08/29 04:25:32;;;;;;;;;;;;;;;;;;5010110;28;19966;-70
2023/08/29 04:27:58;;;;;;;;;;;;;;;;;;5010916;28;19988;-71
2023/08/29 04:30:24;;;;;;;;;;;;;;;;;;4993761;28;19905;-71
2023/08/29 04:32:50;;;;;;;;;;;;;;;;;;5011674;28;20403;-70
2023/08/29 04:35:16;;;;;;;;;;;;;;;;;;5011161;28;20388;-70
2023/08/29 04:37:42;;;;;;;;;;;;;;;;;;4992662;28;19959;-69
2023/08/29 04:40:08;;;;;;;;;;;;;;;;;;5010957;28;19911;-70
2023/08/29 04:42:34;;;;;;;;;;;;;;;;;;5011361;28;19906;-70
2023/08/29 04:45:00;;;;;;;;;;;;;;;;;;5012019;28;20408;-70
2023/08/29 04:47:27;;;;;;;;;;;;;;;;;;5010904;28;19928;-70
2023/08/29 04:49:53;;;;;;;;;;;;;;;;;;5011053;28;19975;-69
2023/08/29 04:52:18;;;;;;;;;;;;;;;;;;5012399;28;20380;-70
2023/08/29 04:54:44;;;;;;;;;;;;;;;;;;5011664;28;19906;-69
2023/08/29 04:57:10;;;;;;;;;;;;;;;;;;5011629;28;19916;-70
2023/08/29 04:59:36;;;;;;;;;;;;;;;;;;5015103;28;19909;-70
2023/08/29 05:02:02;;;;;;;;;;;;;;;;;;5016126;28;20424;-70
2023/08/29 05:04:28;;;;;;;;;;;;;;;;;;5015794;28;19912;-69
2023/08/29 05:06:55;;;;;;;;;;;;;;;;;;5015689;28;19916;-67
2023/08/29 05:09:21;;;;;;;;;;;;;;;;;;5014254;28;19906;-70
2023/08/29 05:11:47;;;;;;;;;;;;;;;;;;5014845;28;20000;-71
2023/08/29 05:14:13;;;;;;;;;;;;;;;;;;5015256;28;19913;-70
2023/08/29 05:16:39;;;;;;;;;;;;;;;;;;5014619;28;19905;-70
2023/08/29 05:19:07;;;;;;;;;;;;;;;;;;5013932;28;19916;-70
2023/08/29 05:21:33;;;;;;;;;;;;;;;;;;5014545;28;19944;-71
2023/08/29 05:23:59;;;;;;;;;;;;;;;;;;5014443;28;20419;-70
2023/08/29 05:26:25;;;;;;;;;;;;;;;;;;5014624;28;19905;-71
2023/08/29 05:28:51;;;;;;;;;;;;;;;;;;5014462;28;19905;-70
2023/08/29 05:31:17;;;;;;;;;;;;;;;;;;5014392;28;20333;-70
2023/08/29 05:33:43;;;;;;;;;;;;;;;;;;5014607;28;19909;-70
2023/08/29 05:36:09;;;;;;;;;;;;;;;;;;5014203;28;19976;-70
2023/08/29 05:38:34;;;;;;;;;;;;;;;;;;5013512;28;19913;-70
2023/08/29 05:41:00;;;;;;;;;;;;;;;;;;5013988;28;19963;-68
2023/08/29 05:43:26;;;;;;;;;;;;;;;;;;5014056;28;20003;-69
2023/08/29 05:45:52;;;;;;;;;;;;;;;;;;5013755;28;19913;-69
2023/08/29 05:48:18;;;;;;;;;;;;;;;;;;5011671;28;20387;-70
2023/08/29 05:50:44;;;;;;;;;;;;;;;;;;5013897;28;19905;-70
2023/08/29 05:53:10;;;;;;;;;;;;;;;;;;5014437;28;20055;-70
2023/08/29 05:55:36;;;;;;;;;;;;;;;;;;5013345;28;19916;-71
2023/08/29 05:58:02;;;;;;;;;;;;;;;;;;4995478;28;19917;-69
2023/08/29 06:00:29;;;;;;;;;;;;;;;;;;5013872;28;20328;-69
2023/08/29 06:02:55;;;;;;;;;;;;;;;;;;5013840;28;19905;-70
2023/08/29 06:05:21;;;;;;;;;;;;;;;;;;5013661;28;19967;-70
2023/08/29 06:07:47;;;;;;;;;;;;;;;;;;5012830;28;20364;-71
2023/08/29 06:10:13;;;;;;;;;;;;;;;;;;4994724;28;19925;-71
2023/08/29 06:12:39;;;;;;;;;;;;;;;;;;5013517;28;19909;-70
2023/08/29 06:15:05;;;;;;;;;;;;;;;;;;5013407;28;19914;-71
2023/08/29 06:17:31;;;;;;;;;;;;;;;;;;5012586;28;19915;-70
2023/08/29 06:19:56;;;;;;;;;;;;;;;;;;5013656;28;19905;-70
2023/08/29 06:22:22;;;;;;;;;;;;;;;;;;5013351;28;19913;-71
2023/08/29 06:24:48;;;;;;;;;;;;;;;;;;5013450;28;19905;-70
2023/08/29 06:27:14;;;;;;;;;;;;;;;;;;5013039;28;19912;-71
2023/08/29 06:29:41;;;;;;;;;;;;;;;;;;5013255;28;19920;-69
2023/08/29 06:32:07;;;;;;;;;;;;;;;;;;5013105;28;19929;-71
2023/08/29 06:34:32;;;;;;;;;;;;;;;;;;5021617;28;20323;-71
2023/08/29 06:36:58;;;;;;;;;;;;;;;;;;5013575;28;19909;-70
2023/08/29 06:39:24;;;;;;;;;;;;;;;;;;4997664;28;20369;-71
2023/08/29 06:41:50;;;;;;;;;;;;;;;;;;5016409;28;19909;-71
2023/08/29 06:44:16;;;;;;;;;;;;;;;;;;5016549;28;19906;-71
2023/08/29 06:46:42;;;;;;;;;;;;;;;;;;5016019;28;19905;-71
2023/08/29 06:49:08;;;;;;;;;;;;;;;;;;5012393;28;20277;-71
2023/08/29 06:51:34;;;;;;;;;;;;;;;;;;5010577;28;20004;-71
2023/08/29 06:53:59;;;;;;;;;;;;;;;;;;5011093;28;19987;-71
2023/08/29 06:56:25;;;;;;;;;;;;;;;;;;5009304;28;19917;-70
2023/08/29 06:58:51;;;;;;;;;;;;;;;;;;5022585;28;20261;-70
2023/08/29 07:01:17;;;;;;;;;;;;;;;;;;5023419;28;19991;-71
2023/08/29 07:03:43;;;;;;;;;;;;;;;;;;5009492;28;19909;-70
2023/08/29 07:06:09;;;;;;;;;;;;;;;;;;5012261;28;19913;-71
2023/08/29 07:08:37;;;;;;;;;;;;;;;;;;5011538;28;20020;-70
2023/08/29 07:11:03;;;;;;;;;;;;;;;;;;5012646;28;19913;-70
2023/08/29 07:13:29;;;;;;;;;;;;;;;;;;5012449;28;19905;-71
2023/08/29 07:15:55;;;;;;;;;;;;;;;;;;5012226;28;20373;-70
2023/08/29 07:18:20;;;;;;;;;;;;;;;;;;5009975;28;19909;-68
2023/08/29 07:20:46;;;;;;;;;;;;;;;;;;5001581;28;19912;-69
2023/08/29 07:23:12;;;;;;;;;;;;;;;;;;5010836;28;19943;-69
2023/08/29 07:25:38;;;;;;;;;;;;;;;;;;5009478;28;20123;-70
2023/08/29 07:28:04;;;;;;;;;;;;;;;;;;5001253;28;19912;-70
2023/08/29 07:30:30;;;;;;;;;;;;;;;;;;5011917;28;20273;-70
2023/08/29 07:32:56;;;;;;;;;;;;;;;;;;5012184;28;19913;-70
2023/08/29 07:35:22;;;;;;;;;;;;;;;;;;5011939;28;19905;-70
2023/08/29 07:37:48;;;;;;;;;;;;;;;;;;5011760;28;19909;-71
2023/08/29 07:40:14;;;;;;;;;;;;;;;;;;5010742;28;19910;-71
2023/08/29 07:42:40;;;;;;;;;;;;;;;;;;5011660;28;19917;-70
2023/08/29 07:45:06;;;;;;;;;;;;;;;;;;5011855;28;19905;-70
2023/08/29 07:47:32;;;;;;;;;;;;;;;;;;5010993;28;19905;-71
2023/08/29 07:49:58;;;;;;;;;;;;;;;;;;5011722;28;20326;-71
2023/08/29 07:52:24;;;;;;;;;;;;;;;;;;5011595;28;20031;-71
2023/08/29 07:54:50;;;;;;;;;;;;;;;;;;5011895;28;20292;-72
2023/08/29 07:57:16;;;;;;;;;;;;;;;;;;5011361;28;19917;-72
2023/08/29 07:59:42;;;;;;;;;;;;;;;;;;5011311;28;19905;-71
2023/08/29 08:02:08;;;;;;;;;;;;;;;;;;4993891;28;19977;-71
2023/08/29 08:04:34;;;;;;;;;;;;;;;;;;4993759;28;19929;-71
2023/08/29 08:06:59;;;;;;;;;;;;;;;;;;5010585;28;19971;-71
2023/08/29 08:09:26;;;;;;;;;;;;;;;;;;5010757;28;19995;-71
2023/08/29 08:11:52;;;;;;;;;;;;;;;;;;5011689;28;20273;-71
2023/08/29 08:14:21;;;;;;;;;;;;;;;;;;5011289;28;19905;-71
2023/08/29 08:16:47;;;;;;;;;;;;;;;;;;5011096;28;19909;-71
2023/08/29 08:19:13;;;;;;;;;;;;;;;;;;5011150;28;19912;-71
2023/08/29 08:21:39;;;;;;;;;;;;;;;;;;5011107;28;19905;-71
2023/08/29 08:24:08;;;;;;;;;;;;;;;;;;5011801;28;19905;-71
2023/08/29 08:26:34;;;;;;;;;;;;;;;;;;5011364;28;19905;-70
2023/08/29 08:29:00;;;;;;;;;;;;;;;;;;5010791;28;19910;-70
2023/08/29 08:31:26;;;;;;;;;;;;;;;;;;5011449;28;19912;-71
2023/08/29 08:33:51;;;;;;;;;;;;;;;;;;5010788;28;19906;-71
2023/08/29 08:36:17;;;;;;;;;;;;;;;;;;5019295;28;19909;-71
2023/08/29 08:38:43;;;;;;;;;;;;;;;;;;5010582;28;20000;-71
2023/08/29 08:41:09;;;;;;;;;;;;;;;;;;5011547;28;19960;-72
2023/08/29 08:43:35;;;;;;;;;;;;;;;;;;5011422;28;19909;-72
2023/08/29 08:46:01;;;;;;;;;;;;;;;;;;5011124;28;19906;-71
2023/08/29 08:48:27;;;;;;;;;;;;;;;;;;5010648;28;19997;-72
2023/08/29 08:50:55;;;;;;;;;;;;;;;;;;5011297;28;19910;-72
2023/08/29 08:53:21;;;;;;;;;;;;;;;;;;5012228;28;19906;-71
2023/08/29 08:55:47;;;;;;;;;;;;;;;;;;5013403;28;19905;-72
2023/08/29 08:58:13;;;;;;;;;;;;;;;;;;5014294;28;19913;-72
2023/08/29 09:00:39;;;;;;;;;;;;;;;;;;5016558;28;19939;-71
2023/08/29 09:03:05;;;;;;;;;;;;;;;;;;5015329;28;19913;-71
2023/08/29 09:05:31;;;;;;;;;;;;;;;;;;5012448;28;19924;-72
2023/08/29 09:07:57;;;;;;;;;;;;;;;;;;5010937;28;20395;-72
2023/08/29 09:10:23;;;;;;;;;;;;;;;;;;5049675;22;19921;-72
2023/08/29 09:12:49;;;;;;;;;;;;;;;;;;5030274;28;19905;-73
2023/08/29 09:15:18;;;;;;;;;;;;;;;;;;5030686;28;20399;-72
2023/08/29 09:17:45;;;;;;;;;;;;;;;;;;5030488;28;19909;-72
2023/08/29 09:20:11;;;;;;;;;;;;;;;;;;5030390;28;20547;-72
2023/08/29 09:22:37;;;;;;;;;;;;;;;;;;5030477;28;20040;-72
2023/08/29 09:25:03;;;;;;;;;;;;;;;;;;5012844;28;19984;-73
2023/08/29 09:27:31;;;;;;;;;;;;;;;;;;5029824;28;19905;-72
2023/08/29 09:29:57;;;;;;;;;;;;;;;;;;5030160;28;19928;-73
2023/08/29 09:32:23;;;;;;;;;;;;;;;;;;5030192;28;19931;-71
2023/08/29 09:34:50;;;;;;;;;;;;;;;;;;5030550;28;19960;-71
2023/08/29 09:37:16;;;;;;;;;;;;;;;;;;5029899;28;19916;-71
2023/08/29 09:39:42;;;;;;;;;;;;;;;;;;5030053;28;20335;-71
2023/08/29 09:42:08;;;;;;;;;;;;;;;;;;5029875;28;19905;-72
2023/08/29 09:44:34;;;;;;;;;;;;;;;;;;5030836;28;19908;-72
2023/08/29 09:47:00;;;;;;;;;;;;;;;;;;5033566;28;20300;-73
2023/08/29 09:49:26;;;;;;;;;;;;;;;;;;5033153;28;19905;-72
2023/08/29 09:51:52;;;;;;;;;;;;;;;;;;5033667;28;19909;-72
2023/08/29 09:54:18;;;;;;;;;;;;;;;;;;5033601;28;19905;-71
2023/08/29 09:56:44;;;;;;;;;;;;;;;;;;5032917;28;19909;-70
2023/08/29 09:59:12;;;;;;;;;;;;;;;;;;5032950;28;20405;-70
2023/08/29 10:01:39;;;;;;;;;;;;;;;;;;5033260;28;19912;-71
2023/08/29 10:04:05;;;;;;;;;;;;;;;;;;5033310;28;19937;-72
2023/08/29 10:06:31;;;;;;;;;;;;;;;;;;5033271;28;19998;-72
2023/08/29 10:08:57;;;;;;;;;;;;;;;;;;5032333;28;19909;-71
2023/08/29 10:11:23;;;;;;;;;;;;;;;;;;5033171;28;19905;-71
2023/08/29 10:13:48;;;;;;;;;;;;;;;;;;5033145;28;19912;-70
2023/08/29 10:16:14;;;;;;;;;;;;;;;;;;5033506;28;19963;-73
2023/08/29 10:18:41;;;;;;;;;;;;;;;;;;5029964;28;19952;-72
2023/08/29 10:21:06;;;;;;;;;;;;;;;;;;5027296;28;19909;-72
2023/08/29 10:23:32;;;;;;;;;;;;;;;;;;5030977;28;19905;-72
2023/08/29 10:26:00;;;;;;;;;;;;;;;;;;5035119;28;19909;-72
2023/08/29 10:28:25;;;;;;;;;;;;;;;;;;5031676;28;19952;-72
2023/08/29 10:30:51;;;;;;;;;;;;;;;;;;5033001;28;19909;-72
2023/08/29 10:33:17;;;;;;;;;;;;;;;;;;5032899;28;20407;-72
2023/08/29 10:35:43;;;;;;;;;;;;;;;;;;5032699;28;19905;-72
2023/08/29 10:38:09;;;;;;;;;;;;;;;;;;5031617;28;20352;-71
2023/08/29 10:40:35;;;;;;;;;;;;;;;;;;5032374;28;20277;-72
2023/08/29 10:43:02;;;;;;;;;;;;;;;;;;5031520;28;19909;-71
2023/08/29 10:45:28;;;;;;;;;;;;;;;;;;5032426;28;19912;-72
2023/08/29 10:47:54;;;;;;;;;;;;;;;;;;5030168;28;20285;-72
2023/08/29 10:50:20;;;;;;;;;;;;;;;;;;5025927;28;19916;-72
2023/08/29 10:52:46;;;;;;;;;;;;;;;;;;5014172;28;20063;-71
2023/08/29 10:55:12;;;;;;;;;;;;;;;;;;5034475;28;20361;-72
2023/08/29 10:57:38;;;;;;;;;;;;;;;;;;5030277;28;19912;-72
2023/08/29 11:00:05;;;;;;;;;;;;;;;;;;5026990;28;19990;-71
2023/08/29 11:02:31;;;;;;;;;;;;;;;;;;5030209;28;19925;-72
2023/08/29 11:04:57;;;;;;;;;;;;;;;;;;5030247;28;19915;-70
2023/08/29 11:07:26;;;;;;;;;;;;;;;;;;5037360;28;20387;-70
2023/08/29 11:09:52;;;;;;;;;;;;;;;;;;5027992;28;19913;-70
2023/08/29 11:12:20;;;;;;;;;;;;;;;;;;5012524;28;19905;-71
2023/08/29 11:14:46;;;;;;;;;;;;;;;;;;5012558;28;19912;-71
2023/08/29 11:17:12;;;;;;;;;;;;;;;;;;5012490;28;20307;-71
2023/08/29 11:19:38;;;;;;;;;;;;;;;;;;4994799;28;20332;-71
2023/08/29 11:22:04;;;;;;;;;;;;;;;;;;5006619;28;19905;-71
2023/08/29 11:24:30;;;;;;;;;;;;;;;;;;5031436;28;19912;-71
2023/08/29 11:26:56;;;;;;;;;;;;;;;;;;5030612;28;19905;-70
2023/08/29 11:29:22;;;;;;;;;;;;;;;;;;5029972;28;20003;-70
2023/08/29 11:31:48;;;;;;;;;;;;;;;;;;5031855;28;19905;-71
2023/08/29 11:34:14;;;;;;;;;;;;;;;;;;5030938;28;19905;-70
2023/08/29 11:36:42;;;;;;;;;;;;;;;;;;5031105;28;19928;-71
2023/08/29 11:39:08;;;;;;;;;;;;;;;;;;5030935;28;19909;-70
2023/08/29 11:41:35;;;;;;;;;;;;;;;;;;5027502;28;20292;-70
2023/08/29 11:44:01;;;;;;;;;;;;;;;;;;5004777;28;20340;-71
2023/08/29 11:46:27;;;;;;;;;;;;;;;;;;5029112;28;19992;-70
2023/08/29 11:48:53;;;;;;;;;;;;;;;;;;5022414;28;19915;-71
2023/08/29 11:51:19;;;;;;;;;;;;;;;;;;5031357;28;19905;-71
2023/08/29 11:53:45;;;;;;;;;;;;;;;;;;5031565;28;19905;-70
2023/08/29 11:56:11;;;;;;;;;;;;;;;;;;5031529;28;19944;-69
2023/08/29 11:58:37;;;;;;;;;;;;;;;;;;5030858;28;19909;-69
2023/08/29 12:01:03;;;;;;;;;;;;;;;;;;5031411;28;19905;-70
2023/08/29 12:03:29;;;;;;;;;;;;;;;;;;5029311;28;19913;-70
2023/08/29 12:05:56;;;;;;;;;;;;;;;;;;5031465;28;19936;-70
2023/08/29 12:08:22;;;;;;;;;;;;;;;;;;5030027;28;19959;-70
2023/08/29 12:10:48;;;;;;;;;;;;;;;;;;5031272;28;20369;-70
2023/08/29 12:13:14;;;;;;;;;;;;;;;;;;5030188;28;19999;-70
2023/08/29 12:15:40;;;;;;;;;;;;;;;;;;5031342;28;19905;-70
2023/08/29 12:18:06;;;;;;;;;;;;;;;;;;5030763;28;19916;-70
2023/08/29 12:20:33;;;;;;;;;;;;;;;;;;5031235;28;19959;-70
2023/08/29 12:22:59;;;;;;;;;;;;;;;;;;5031123;28;20416;-69
2023/08/29 12:25:26;;;;;;;;;;;;;;;;;;5031053;28;20003;-71
2023/08/29 12:27:52;;;;;;;;;;;;;;;;;;5030551;28;19909;-70
2023/08/29 12:30:18;;;;;;;;;;;;;;;;;;5031111;28;19912;-71
2023/08/29 12:32:44;;;;;;;;;;;;;;;;;;5030694;28;19909;-70
2023/08/29 12:35:10;;;;;;;;;;;;;;;;;;5030913;28;19967;-69
2023/08/29 12:37:36;;;;;;;;;;;;;;;;;;5030766;28;19971;-69
2023/08/29 12:40:08;;;;;;;;;;;;;;;;;;5031218;28;19913;-69
2023/08/29 12:42:34;;;;;;;;;;;;;;;;;;5031001;28;20372;-70
2023/08/29 12:45:00;;;;;;;;;;;;;;;;;;5031105;28;19911;-70
2023/08/29 12:47:26;;;;;;;;;;;;;;;;;;5030308;28;19913;-70
2023/08/29 12:49:52;;;;;;;;;;;;;;;;;;5031052;28;19959;-70
2023/08/29 12:52:18;;;;;;;;;;;;;;;;;;5031022;28;19905;-69
2023/08/29 12:54:43;;;;;;;;;;;;;;;;;;5031076;28;20300;-70
2023/08/29 12:57:09;;;;;;;;;;;;;;;;;;5030400;28;19954;-70
2023/08/29 12:59:35;;;;;;;;;;;;;;;;;;5030108;28;19904;-71
2023/08/29 13:02:02;;;;;;;;;;;;;;;;;;5030807;28;19905;-69
2023/08/29 13:04:28;;;;;;;;;;;;;;;;;;5031072;28;19908;-70
2023/08/29 13:06:54;;;;;;;;;;;;;;;;;;5030733;28;19912;-70
2023/08/29 13:09:21;;;;;;;;;;;;;;;;;;5028671;28;19913;-70
2023/08/29 13:11:46;;;;;;;;;;;;;;;;;;5030542;28;19905;-69
2023/08/29 13:14:12;;;;;;;;;;;;;;;;;;5030190;28;20400;-70
2023/08/29 13:16:38;;;;;;;;;;;;;;;;;;5030492;28;19916;-69
2023/08/29 13:19:04;;;;;;;;;;;;;;;;;;5031569;28;20451;-70
2023/08/29 13:21:30;;;;;;;;;;;;;;;;;;5033028;28;19959;-71
2023/08/29 13:23:56;;;;;;;;;;;;;;;;;;5034364;28;19909;-70
2023/08/29 13:26:22;;;;;;;;;;;;;;;;;;5034323;28;19916;-70
2023/08/29 13:28:48;;;;;;;;;;;;;;;;;;5033940;28;19941;-71
2023/08/29 13:31:15;;;;;;;;;;;;;;;;;;5035565;28;19959;-70
2023/08/29 13:33:41;;;;;;;;;;;;;;;;;;5041164;28;19905;-70
2023/08/29 13:36:07;;;;;;;;;;;;;;;;;;5034257;28;19916;-69
2023/08/29 13:38:33;;;;;;;;;;;;;;;;;;5013767;28;19928;-69
2023/08/29 13:40:59;;;;;;;;;;;;;;;;;;5033096;28;19913;-69
2023/08/29 13:43:24;;;;;;;;;;;;;;;;;;5033649;28;20003;-69
2023/08/29 13:45:50;;;;;;;;;;;;;;;;;;5033515;28;20380;-71
2023/08/29 13:48:16;;;;;;;;;;;;;;;;;;5030750;28;19916;-72
2023/08/29 13:50:43;;;;;;;;;;;;;;;;;;5033395;28;19909;-71
2023/08/29 13:53:11;;;;;;;;;;;;;;;;;;5033893;28;20261;-70
2023/08/29 13:55:37;;;;;;;;;;;;;;;;;;5033479;28;20324;-70
2023/08/29 13:58:03;;;;;;;;;;;;;;;;;;5032507;28;19909;-71
2023/08/29 14:00:29;;;;;;;;;;;;;;;;;;5029545;28;19929;-69
2023/08/29 14:02:54;;;;;;;;;;;;;;;;;;5031943;28;19951;-70
2023/08/29 14:05:20;;;;;;;;;;;;;;;;;;5028686;28;19913;-69
2023/08/29 14:07:47;;;;;;;;;;;;;;;;;;5032544;28;19921;-70
2023/08/29 14:10:13;;;;;;;;;;;;;;;;;;5033195;28;19940;-72
2023/08/29 14:12:39;;;;;;;;;;;;;;;;;;5037079;28;19909;-71
2023/08/29 14:15:05;;;;;;;;;;;;;;;;;;5045140;28;20295;-71
2023/08/29 14:17:31;;;;;;;;;;;;;;;;;;5052530;28;19909;-71
2023/08/29 14:19:57;;;;;;;;;;;;;;;;;;5053364;28;19905;-70
2023/08/29 14:22:23;;;;;;;;;;;;;;;;;;5041363;28;19947;-71
2023/08/29 14:24:49;;;;;;;;;;;;;;;;;;5045457;28;20011;-70
2023/08/29 14:27:15;;;;;;;;;;;;;;;;;;5052912;28;20376;-70
2023/08/29 14:29:41;;;;;;;;;;;;;;;;;;5052757;28;19909;-71
2023/08/29 14:32:07;;;;;;;;;;;;;;;;;;5049016;28;19905;-72
2023/08/29 14:34:32;;;;;;;;;;;;;;;;;;5033152;28;19966;-69
2023/08/29 14:36:58;;;;;;;;;;;;;;;;;;5033151;28;19913;-70
2023/08/29 14:39:26;;;;;;;;;;;;;;;;;;5032174;28;19940;-69
2023/08/29 14:41:52;;;;;;;;;;;;;;;;;;5033897;28;19939;-70
2023/08/29 14:44:18;;;;;;;;;;;;;;;;;;5031656;28;20481;-70
2023/08/29 14:46:44;;;;;;;;;;;;;;;;;;5040468;28;19967;-70
2023/08/29 14:49:10;;;;;;;;;;;;;;;;;;5020175;28;20258;-69
2023/08/29 14:51:36;;;;;;;;;;;;;;;;;;5032663;28;19996;-70
2023/08/29 14:54:03;;;;;;;;;;;;;;;;;;5032627;28;20377;-69
2023/08/29 14:56:29;;;;;;;;;;;;;;;;;;5031901;28;20000;-70
2023/08/29 14:58:55;;;;;;;;;;;;;;;;;;5031404;28;20007;-69
2023/08/29 15:01:22;;;;;;;;;;;;;;;;;;5032314;28;19905;-70
2023/08/29 15:03:47;;;;;;;;;;;;;;;;;;5032993;28;19913;-70
2023/08/29 15:06:15;;;;;;;;;;;;;;;;;;5032763;28;19905;-70
2023/08/29 15:08:41;;;;;;;;;;;;;;;;;;5031885;28;19905;-70
2023/08/29 15:11:07;;;;;;;;;;;;;;;;;;5033346;28;20051;-70
2023/08/29 15:13:33;;;;;;;;;;;;;;;;;;5032846;28;19909;-71
2023/08/29 15:15:59;;;;;;;;;;;;;;;;;;5032770;28;20446;-70
2023/08/29 15:18:25;;;;;;;;;;;;;;;;;;5032558;28;19909;-71
2023/08/29 15:20:50;;;;;;;;;;;;;;;;;;5033817;28;19912;-69
2023/08/29 15:23:16;;;;;;;;;;;;;;;;;;5033703;28;19905;-69
2023/08/29 15:25:43;;;;;;;;;;;;;;;;;;5032913;28;20035;-70
2023/08/29 15:28:09;;;;;;;;;;;;;;;;;;5032034;28;19967;-70
2023/08/29 15:30:35;;;;;;;;;;;;;;;;;;5031096;28;20463;-71
2023/08/29 15:33:01;;;;;;;;;;;;;;;;;;5032215;28;19905;-71
2023/08/29 15:35:27;;;;;;;;;;;;;;;;;;5031910;28;19928;-70
2023/08/29 15:37:53;;;;;;;;;;;;;;;;;;5031313;28;19913;-70
2023/08/29 15:40:19;;;;;;;;;;;;;;;;;;5032003;28;20012;-71
2023/08/29 15:42:44;;;;;;;;;;;;;;;;;;5032027;28;19948;-71
2023/08/29 15:45:10;;;;;;;;;;;;;;;;;;5031910;28;19906;-70
2023/08/29 15:47:36;;;;;;;;;;;;;;;;;;5031237;28;19905;-71
2023/08/29 15:50:02;;;;;;;;;;;;;;;;;;5032081;28;19909;-70
2023/08/29 15:52:28;;;;;;;;;;;;;;;;;;5031696;28;19958;-69
2023/08/29 15:54:54;;;;;;;;;;;;;;;;;;5033651;28;19913;-70
2023/08/29 15:57:20;;;;;;;;;;;;;;;;;;5031055;28;19913;-68
2023/08/29 15:59:46;;;;;;;;;;;;;;;;;;5031604;28;19928;-71
2023/08/29 16:02:12;;;;;;;;;;;;;;;;;;5031443;28;20001;-70
2023/08/29 16:04:39;;;;;;;;;;;;;;;;;;5025926;28;19992;-71
2023/08/29 16:07:05;;;;;;;;;;;;;;;;;;5025797;28;19912;-72
2023/08/29 16:09:31;;;;;;;;;;;;;;;;;;5030940;28;19913;-69
2023/08/29 16:11:57;;;;;;;;;;;;;;;;;;5031584;28;20276;-71
2023/08/29 16:14:23;;;;;;;;;;;;;;;;;;5031310;28;19999;-70
2023/08/29 16:16:49;;;;;;;;;;;;;;;;;;5030830;28;19905;-70
2023/08/29 16:19:14;;;;;;;;;;;;;;;;;;5030617;28;19909;-71
2023/08/29 16:21:40;;;;;;;;;;;;;;;;;;5031314;28;19956;-71
2023/08/29 16:24:07;;;;;;;;;;;;;;;;;;5040200;28;19911;-71
2023/08/29 16:26:33;;;;;;;;;;;;;;;;;;5036906;28;20287;-72
2023/08/29 16:28:58;;;;;;;;;;;;;;;;;;5043824;28;19905;-70
2023/08/29 16:31:24;;;;;;;;;;;;;;;;;;5050836;28;19905;-70
2023/08/29 16:33:51;;;;;;;;;;;;;;;;;;5051170;28;19952;-71
2023/08/29 16:36:20;;;;;;;;;;;;;;;;;;5051117;28;19932;-73